sensor_id;sensor_type;location;lat;lon;timestamp;P1;durP1;ratioP1;P2;durP2;ratioP2
43793;SDS011;29414;44.798;20.366;2023-04-24T00:01:40;6.30;;;4.34;;
43793;SDS011;29414;44.798;20.366;2023-04-24T00:05:42;6.72;;;4.53;;
43793;SDS011;29414;44.798;20.366;2023-04-24T00:09:43;5.90;;;4.15;;
43793;SDS011;29414;44.798;20.366;2023-04-24T00:13:43;11.23;;;4.30;;
43793;SDS011;29414;44.798;20.366;2023-04-24T00:17:43;5.55;;;3.83;;
43793;SDS011;29414;44.798;20.366;2023-04-24T00:21:47;9.95;;;3.90;;
43793;SDS011;29414;44.798;20.366;2023-04-24T00:25:49;5.07;;;4.00;;
43793;SDS011;29414;44.798;20.366;2023-04-24T00:29:50;6.96;;;3.70;;
43793;SDS011;29414;44.798;20.366;2023-04-24T00:33:50;4.55;;;3.42;;
43793;SDS011;29414;44.798;20.366;2023-04-24T00:37:50;4.40;;;3.92;;
43793;SDS011;29414;44.798;20.366;2023-04-24T00:41:51;4.55;;;3.67;;
43793;SDS011;29414;44.798;20.366;2023-04-24T00:45:51;4.93;;;3.05;;
43793;SDS011;29414;44.798;20.366;2023-04-24T00:49:51;7.22;;;3.95;;
43793;SDS011;29414;44.798;20.366;2023-04-24T00:53:51;6.98;;;3.26;;
43793;SDS011;29414;44.798;20.366;2023-04-24T00:57:52;4.22;;;3.22;;
43793;SDS011;29414;44.798;20.366;2023-04-24T01:01:52;4.35;;;3.95;;
43793;SDS011;29414;44.798;20.366;2023-04-24T01:05:55;4.93;;;3.83;;
43793;SDS011;29414;44.798;20.366;2023-04-24T01:09:56;6.07;;;4.38;;
43793;SDS011;29414;44.798;20.366;2023-04-24T01:13:56;4.70;;;3.85;;
43793;SDS011;29414;44.798;20.366;2023-04-24T01:17:57;6.95;;;3.65;;
43793;SDS011;29414;44.798;20.366;2023-04-24T01:21:58;3.92;;;3.53;;
43793;SDS011;29414;44.798;20.366;2023-04-24T01:25:58;10.25;;;3.85;;
43793;SDS011;29414;44.798;20.366;2023-04-24T01:29:59;4.38;;;3.78;;
43793;SDS011;29414;44.798;20.366;2023-04-24T01:33:59;6.03;;;4.30;;
43793;SDS011;29414;44.798;20.366;2023-04-24T01:38:00;5.00;;;3.97;;
43793;SDS011;29414;44.798;20.366;2023-04-24T01:42:00;31.88;;;5.53;;
43793;SDS011;29414;44.798;20.366;2023-04-24T01:46:02;6.05;;;3.40;;
43793;SDS011;29414;44.798;20.366;2023-04-24T01:50:03;4.13;;;3.38;;
43793;SDS011;29414;44.798;20.366;2023-04-24T01:54:03;3.40;;;3.10;;
43793;SDS011;29414;44.798;20.366;2023-04-24T01:58:03;3.50;;;3.20;;
43793;SDS011;29414;44.798;20.366;2023-04-24T02:02:04;4.93;;;3.42;;
43793;SDS011;29414;44.798;20.366;2023-04-24T02:06:04;4.15;;;3.55;;
43793;SDS011;29414;44.798;20.366;2023-04-24T02:10:04;3.55;;;3.15;;
43793;SDS011;29414;44.798;20.366;2023-04-24T02:14:05;5.45;;;3.70;;
43793;SDS011;29414;44.798;20.366;2023-04-24T02:18:05;4.20;;;3.50;;
43793;SDS011;29414;44.798;20.366;2023-04-24T02:22:06;4.68;;;3.20;;
43793;SDS011;29414;44.798;20.366;2023-04-24T02:26:07;4.75;;;3.78;;
43793;SDS011;29414;44.798;20.366;2023-04-24T02:30:07;6.15;;;4.25;;
43793;SDS011;29414;44.798;20.366;2023-04-24T02:34:08;5.65;;;3.38;;
43793;SDS011;29414;44.798;20.366;2023-04-24T02:38:08;9.02;;;4.25;;
43793;SDS011;29414;44.798;20.366;2023-04-24T02:42:08;6.78;;;3.30;;
43793;SDS011;29414;44.798;20.366;2023-04-24T02:46:09;8.40;;;3.72;;
43793;SDS011;29414;44.798;20.366;2023-04-24T02:50:09;4.55;;;3.42;;
43793;SDS011;29414;44.798;20.366;2023-04-24T02:54:09;5.03;;;2.95;;
43793;SDS011;29414;44.798;20.366;2023-04-24T02:58:10;5.40;;;2.90;;
43793;SDS011;29414;44.798;20.366;2023-04-24T03:02:10;4.93;;;3.72;;
43793;SDS011;29414;44.798;20.366;2023-04-24T03:06:11;3.90;;;3.28;;
43793;SDS011;29414;44.798;20.366;2023-04-24T03:10:11;7.63;;;3.63;;
43793;SDS011;29414;44.798;20.366;2023-04-24T03:14:11;5.14;;;3.52;;
43793;SDS011;29414;44.798;20.366;2023-04-24T03:18:11;5.10;;;3.45;;
43793;SDS011;29414;44.798;20.366;2023-04-24T03:22:12;5.05;;;4.22;;
43793;SDS011;29414;44.798;20.366;2023-04-24T03:26:12;6.15;;;3.22;;
43793;SDS011;29414;44.798;20.366;2023-04-24T03:30:12;3.75;;;3.33;;
43793;SDS011;29414;44.798;20.366;2023-04-24T03:34:13;6.68;;;3.42;;
43793;SDS011;29414;44.798;20.366;2023-04-24T03:38:13;5.13;;;3.40;;
43793;SDS011;29414;44.798;20.366;2023-04-24T03:42:13;4.55;;;3.22;;
43793;SDS011;29414;44.798;20.366;2023-04-24T03:46:13;5.18;;;3.65;;
43793;SDS011;29414;44.798;20.366;2023-04-24T03:50:15;3.65;;;3.35;;
43793;SDS011;29414;44.798;20.366;2023-04-24T03:54:15;6.28;;;3.05;;
43793;SDS011;29414;44.798;20.366;2023-04-24T03:58:15;4.28;;;3.88;;
43793;SDS011;29414;44.798;20.366;2023-04-24T04:02:16;4.97;;;3.25;;
43793;SDS011;29414;44.798;20.366;2023-04-24T04:06:16;6.57;;;3.72;;
43793;SDS011;29414;44.798;20.366;2023-04-24T04:10:16;5.32;;;4.00;;
43793;SDS011;29414;44.798;20.366;2023-04-24T04:14:17;7.28;;;3.28;;
43793;SDS011;29414;44.798;20.366;2023-04-24T04:18:17;6.95;;;4.30;;
43793;SDS011;29414;44.798;20.366;2023-04-24T04:22:17;5.00;;;3.95;;
43793;SDS011;29414;44.798;20.366;2023-04-24T04:26:18;5.63;;;4.05;;
43793;SDS011;29414;44.798;20.366;2023-04-24T04:30:19;9.93;;;4.20;;
43793;SDS011;29414;44.798;20.366;2023-04-24T04:34:20;6.32;;;4.18;;
43793;SDS011;29414;44.798;20.366;2023-04-24T04:38:21;6.43;;;3.78;;
43793;SDS011;29414;44.798;20.366;2023-04-24T04:42:21;3.70;;;3.30;;
43793;SDS011;29414;44.798;20.366;2023-04-24T04:46:21;4.80;;;3.80;;
43793;SDS011;29414;44.798;20.366;2023-04-24T04:50:26;4.45;;;3.88;;
43793;SDS011;29414;44.798;20.366;2023-04-24T04:54:26;7.68;;;4.32;;
43793;SDS011;29414;44.798;20.366;2023-04-24T04:58:26;9.55;;;6.95;;
43793;SDS011;29414;44.798;20.366;2023-04-24T05:02:27;6.78;;;5.63;;
43793;SDS011;29414;44.798;20.366;2023-04-24T05:06:27;9.68;;;5.47;;
43793;SDS011;29414;44.798;20.366;2023-04-24T05:10:27;14.36;;;6.00;;
43793;SDS011;29414;44.798;20.366;2023-04-24T05:14:28;13.23;;;6.43;;
43793;SDS011;29414;44.798;20.366;2023-04-24T05:18:28;10.93;;;6.80;;
43793;SDS011;29414;44.798;20.366;2023-04-24T05:22:28;9.10;;;5.80;;
43793;SDS011;29414;44.798;20.366;2023-04-24T05:26:28;13.15;;;6.32;;
43793;SDS011;29414;44.798;20.366;2023-04-24T05:30:29;9.25;;;6.28;;
43793;SDS011;29414;44.798;20.366;2023-04-24T05:34:29;10.80;;;6.65;;
43793;SDS011;29414;44.798;20.366;2023-04-24T05:38:29;8.60;;;6.30;;
43793;SDS011;29414;44.798;20.366;2023-04-24T05:42:30;8.60;;;5.70;;
43793;SDS011;29414;44.798;20.366;2023-04-24T05:46:30;9.63;;;6.13;;
43793;SDS011;29414;44.798;20.366;2023-04-24T05:50:30;10.68;;;6.60;;
43793;SDS011;29414;44.798;20.366;2023-04-24T05:54:31;11.55;;;5.85;;
43793;SDS011;29414;44.798;20.366;2023-04-24T05:58:31;8.68;;;5.70;;
43793;SDS011;29414;44.798;20.366;2023-04-24T06:02:31;8.93;;;6.03;;
43793;SDS011;29414;44.798;20.366;2023-04-24T06:06:32;6.53;;;5.78;;
43793;SDS011;29414;44.798;20.366;2023-04-24T06:10:33;8.25;;;6.13;;
43793;SDS011;29414;44.798;20.366;2023-04-24T06:14:33;7.38;;;5.43;;
43793;SDS011;29414;44.798;20.366;2023-04-24T06:18:34;8.10;;;7.20;;
43793;SDS011;29414;44.798;20.366;2023-04-24T06:22:34;12.52;;;6.38;;
43793;SDS011;29414;44.798;20.366;2023-04-24T06:26:35;8.57;;;7.05;;
43793;SDS011;29414;44.798;20.366;2023-04-24T06:30:35;7.90;;;5.40;;
43793;SDS011;29414;44.798;20.366;2023-04-24T06:34:36;6.78;;;6.18;;
43793;SDS011;29414;44.798;20.366;2023-04-24T06:38:36;7.28;;;6.55;;
43793;SDS011;29414;44.798;20.366;2023-04-24T06:42:36;9.25;;;6.78;;
43793;SDS011;29414;44.798;20.366;2023-04-24T06:46:37;9.63;;;5.72;;
43793;SDS011;29414;44.798;20.366;2023-04-24T06:50:37;9.45;;;6.18;;
43793;SDS011;29414;44.798;20.366;2023-04-24T06:54:37;11.27;;;6.38;;
43793;SDS011;29414;44.798;20.366;2023-04-24T06:58:38;7.95;;;5.85;;
43793;SDS011;29414;44.798;20.366;2023-04-24T07:02:38;6.40;;;5.72;;
43793;SDS011;29414;44.798;20.366;2023-04-24T07:06:39;10.02;;;5.50;;
43793;SDS011;29414;44.798;20.366;2023-04-24T07:10:43;10.63;;;5.97;;
43793;SDS011;29414;44.798;20.366;2023-04-24T07:14:44;6.30;;;4.93;;
43793;SDS011;29414;44.798;20.366;2023-04-24T07:18:44;7.60;;;4.90;;
43793;SDS011;29414;44.798;20.366;2023-04-24T07:22:45;8.82;;;5.30;;
43793;SDS011;29414;44.798;20.366;2023-04-24T07:26:45;7.35;;;5.10;;
43793;SDS011;29414;44.798;20.366;2023-04-24T07:30:46;9.93;;;5.10;;
43793;SDS011;29414;44.798;20.366;2023-04-24T07:34:46;6.80;;;4.60;;
43793;SDS011;29414;44.798;20.366;2023-04-24T07:38:47;5.35;;;3.60;;
43793;SDS011;29414;44.798;20.366;2023-04-24T07:42:47;4.75;;;3.85;;
43793;SDS011;29414;44.798;20.366;2023-04-24T07:46:50;6.38;;;4.40;;
43793;SDS011;29414;44.798;20.366;2023-04-24T07:50:51;8.32;;;4.55;;
43793;SDS011;29414;44.798;20.366;2023-04-24T07:54:51;7.40;;;4.13;;
43793;SDS011;29414;44.798;20.366;2023-04-24T07:58:58;6.93;;;4.68;;
43793;SDS011;29414;44.798;20.366;2023-04-24T08:02:58;6.75;;;5.10;;
43793;SDS011;29414;44.798;20.366;2023-04-24T08:06:58;5.57;;;4.88;;
43793;SDS011;29414;44.798;20.366;2023-04-24T08:10:58;5.03;;;4.50;;
43793;SDS011;29414;44.798;20.366;2023-04-24T08:14:59;4.68;;;4.28;;
43793;SDS011;29414;44.798;20.366;2023-04-24T08:18:59;6.60;;;4.65;;
43793;SDS011;29414;44.798;20.366;2023-04-24T08:22:59;8.45;;;5.10;;
43793;SDS011;29414;44.798;20.366;2023-04-24T08:27:00;6.50;;;4.85;;
43793;SDS011;29414;44.798;20.366;2023-04-24T08:31:01;7.45;;;5.05;;
43793;SDS011;29414;44.798;20.366;2023-04-24T08:35:01;4.95;;;4.20;;
43793;SDS011;29414;44.798;20.366;2023-04-24T08:39:02;6.13;;;4.82;;
43793;SDS011;29414;44.798;20.366;2023-04-24T08:43:02;5.60;;;4.68;;
43793;SDS011;29414;44.798;20.366;2023-04-24T08:47:03;10.20;;;6.30;;
43793;SDS011;29414;44.798;20.366;2023-04-24T08:51:04;6.60;;;5.30;;
43793;SDS011;29414;44.798;20.366;2023-04-24T08:55:06;6.57;;;5.32;;
43793;SDS011;29414;44.798;20.366;2023-04-24T08:59:06;6.63;;;4.63;;
43793;SDS011;29414;44.798;20.366;2023-04-24T09:03:06;8.07;;;5.00;;
43793;SDS011;29414;44.798;20.366;2023-04-24T09:07:07;10.23;;;4.50;;
43793;SDS011;29414;44.798;20.366;2023-04-24T09:11:08;6.45;;;5.03;;
43793;SDS011;29414;44.798;20.366;2023-04-24T09:15:09;12.57;;;5.18;;
43793;SDS011;29414;44.798;20.366;2023-04-24T09:19:09;9.70;;;4.95;;
43793;SDS011;29414;44.798;20.366;2023-04-24T09:23:10;9.32;;;5.58;;
43793;SDS011;29414;44.798;20.366;2023-04-24T09:27:16;7.65;;;5.50;;
43793;SDS011;29414;44.798;20.366;2023-04-24T09:31:19;5.72;;;5.22;;
43793;SDS011;29414;44.798;20.366;2023-04-24T09:35:21;8.55;;;5.65;;
43793;SDS011;29414;44.798;20.366;2023-04-24T09:39:22;7.25;;;5.65;;
43793;SDS011;29414;44.798;20.366;2023-04-24T09:43:22;7.80;;;5.72;;
43793;SDS011;29414;44.798;20.366;2023-04-24T09:47:22;8.35;;;6.05;;
43793;SDS011;29414;44.798;20.366;2023-04-24T09:51:33;6.32;;;5.72;;
43793;SDS011;29414;44.798;20.366;2023-04-24T09:55:35;7.40;;;6.38;;
43793;SDS011;29414;44.798;20.366;2023-04-24T09:59:42;8.00;;;5.93;;
43793;SDS011;29414;44.798;20.366;2023-04-24T10:03:42;10.02;;;5.43;;
43793;SDS011;29414;44.798;20.366;2023-04-24T10:07:46;7.72;;;5.85;;
43793;SDS011;29414;44.798;20.366;2023-04-24T10:11:47;5.50;;;5.00;;
43793;SDS011;29414;44.798;20.366;2023-04-24T10:15:47;8.73;;;6.20;;
43793;SDS011;29414;44.798;20.366;2023-04-24T10:19:49;8.25;;;7.13;;
43793;SDS011;29414;44.798;20.366;2023-04-24T10:23:49;10.85;;;7.18;;
43793;SDS011;29414;44.798;20.366;2023-04-24T10:27:51;11.75;;;8.10;;
43793;SDS011;29414;44.798;20.366;2023-04-24T10:31:51;7.22;;;6.18;;
43793;SDS011;29414;44.798;20.366;2023-04-24T10:35:52;7.22;;;5.53;;
43793;SDS011;29414;44.798;20.366;2023-04-24T10:39:52;8.15;;;5.18;;
43793;SDS011;29414;44.798;20.366;2023-04-24T10:44:04;7.53;;;5.47;;
43793;SDS011;29414;44.798;20.366;2023-04-24T10:48:06;5.75;;;5.05;;
43793;SDS011;29414;44.798;20.366;2023-04-24T10:52:10;6.68;;;5.95;;
43793;SDS011;29414;44.798;20.366;2023-04-24T10:56:12;6.47;;;5.53;;
43793;SDS011;29414;44.798;20.366;2023-04-24T11:00:14;6.45;;;5.72;;
43793;SDS011;29414;44.798;20.366;2023-04-24T11:04:21;9.23;;;5.97;;
43793;SDS011;29414;44.798;20.366;2023-04-24T11:08:49;7.30;;;5.15;;
43793;SDS011;29414;44.798;20.366;2023-04-24T11:12:50;5.55;;;4.18;;
43793;SDS011;29414;44.798;20.366;2023-04-24T11:16:51;7.43;;;4.63;;
43793;SDS011;29414;44.798;20.366;2023-04-24T11:20:52;8.40;;;4.72;;
43793;SDS011;29414;44.798;20.366;2023-04-24T11:24:54;6.47;;;4.13;;
43793;SDS011;29414;44.798;20.366;2023-04-24T11:28:54;7.95;;;4.65;;
43793;SDS011;29414;44.798;20.366;2023-04-24T11:33:06;7.97;;;4.75;;
43793;SDS011;29414;44.798;20.366;2023-04-24T11:37:07;6.65;;;4.22;;
43793;SDS011;29414;44.798;20.366;2023-04-24T11:41:07;6.43;;;4.45;;
43793;SDS011;29414;44.798;20.366;2023-04-24T11:45:09;4.82;;;4.38;;
43793;SDS011;29414;44.798;20.366;2023-04-24T11:49:10;7.78;;;4.32;;
43793;SDS011;29414;44.798;20.366;2023-04-24T11:53:12;6.25;;;4.13;;
43793;SDS011;29414;44.798;20.366;2023-04-24T11:57:12;3.95;;;3.53;;
43793;SDS011;29414;44.798;20.366;2023-04-24T12:01:15;7.25;;;4.90;;
43793;SDS011;29414;44.798;20.366;2023-04-24T12:05:20;11.35;;;8.20;;
43793;SDS011;29414;44.798;20.366;2023-04-24T12:09:21;11.75;;;7.43;;
43793;SDS011;29414;44.798;20.366;2023-04-24T12:13:21;11.88;;;7.18;;
43793;SDS011;29414;44.798;20.366;2023-04-24T12:17:29;9.85;;;6.57;;
43793;SDS011;29414;44.798;20.366;2023-04-24T12:21:30;9.88;;;6.10;;
43793;SDS011;29414;44.798;20.366;2023-04-24T12:25:32;6.28;;;4.43;;
43793;SDS011;29414;44.798;20.366;2023-04-24T12:29:32;11.45;;;5.75;;
43793;SDS011;29414;44.798;20.366;2023-04-24T12:33:33;9.38;;;5.43;;
43793;SDS011;29414;44.798;20.366;2023-04-24T12:37:34;6.43;;;5.10;;
43793;SDS011;29414;44.798;20.366;2023-04-24T12:41:36;6.82;;;5.22;;
43793;SDS011;29414;44.798;20.366;2023-04-24T12:45:36;5.40;;;4.38;;
43793;SDS011;29414;44.798;20.366;2023-04-24T12:49:36;6.57;;;4.70;;
43793;SDS011;29414;44.798;20.366;2023-04-24T12:53:37;5.60;;;4.22;;
43793;SDS011;29414;44.798;20.366;2023-04-24T12:57:39;8.00;;;3.90;;
43793;SDS011;29414;44.798;20.366;2023-04-24T13:01:40;3.65;;;2.90;;
43793;SDS011;29414;44.798;20.366;2023-04-24T13:05:41;5.35;;;2.88;;
43793;SDS011;29414;44.798;20.366;2023-04-24T13:09:42;3.03;;;2.83;;
43793;SDS011;29414;44.798;20.366;2023-04-24T13:13:43;6.18;;;2.63;;
43793;SDS011;29414;44.798;20.366;2023-04-24T13:17:43;5.15;;;2.97;;
43793;SDS011;29414;44.798;20.366;2023-04-24T13:21:43;5.97;;;2.55;;
43793;SDS011;29414;44.798;20.366;2023-04-24T13:25:44;3.10;;;2.63;;
43793;SDS011;29414;44.798;20.366;2023-04-24T13:29:44;3.16;;;2.82;;
43793;SDS011;29414;44.798;20.366;2023-04-24T13:33:44;8.38;;;3.38;;
43793;SDS011;29414;44.798;20.366;2023-04-24T13:37:45;4.40;;;3.15;;
43793;SDS011;29414;44.798;20.366;2023-04-24T13:41:45;3.47;;;3.13;;
43793;SDS011;29414;44.798;20.366;2023-04-24T13:45:47;3.65;;;2.72;;
43793;SDS011;29414;44.798;20.366;2023-04-24T13:49:48;4.45;;;2.80;;
43793;SDS011;29414;44.798;20.366;2023-04-24T13:53:48;2.88;;;2.58;;
43793;SDS011;29414;44.798;20.366;2023-04-24T13:57:48;4.54;;;2.12;;
43793;SDS011;29414;44.798;20.366;2023-04-24T14:01:49;3.45;;;2.30;;
43793;SDS011;29414;44.798;20.366;2023-04-24T14:05:51;2.92;;;2.38;;
43793;SDS011;29414;44.798;20.366;2023-04-24T14:09:51;4.70;;;2.35;;
43793;SDS011;29414;44.798;20.366;2023-04-24T14:13:51;2.97;;;2.10;;
43793;SDS011;29414;44.798;20.366;2023-04-24T14:17:51;4.07;;;2.65;;
43793;SDS011;29414;44.798;20.366;2023-04-24T14:21:52;5.32;;;2.78;;
43793;SDS011;29414;44.798;20.366;2023-04-24T14:25:52;3.58;;;2.40;;
43793;SDS011;29414;44.798;20.366;2023-04-24T14:29:53;3.90;;;2.53;;
43793;SDS011;29414;44.798;20.366;2023-04-24T14:33:53;3.56;;;2.56;;
43793;SDS011;29414;44.798;20.366;2023-04-24T14:37:54;4.38;;;2.60;;
43793;SDS011;29414;44.798;20.366;2023-04-24T14:41:54;2.92;;;2.10;;
43793;SDS011;29414;44.798;20.366;2023-04-24T14:45:55;2.40;;;2.05;;
43793;SDS011;29414;44.798;20.366;2023-04-24T14:49:55;3.47;;;2.47;;
43793;SDS011;29414;44.798;20.366;2023-04-24T14:53:56;5.13;;;2.80;;
43793;SDS011;29414;44.798;20.366;2023-04-24T14:57:56;3.55;;;2.22;;
43793;SDS011;29414;44.798;20.366;2023-04-24T15:01:56;3.95;;;2.08;;
43793;SDS011;29414;44.798;20.366;2023-04-24T15:05:57;3.35;;;2.42;;
43793;SDS011;29414;44.798;20.366;2023-04-24T15:09:58;2.78;;;2.33;;
43793;SDS011;29414;44.798;20.366;2023-04-24T15:13:58;2.97;;;1.63;;
43793;SDS011;29414;44.798;20.366;2023-04-24T15:17:58;5.00;;;2.78;;
43793;SDS011;29414;44.798;20.366;2023-04-24T15:21:59;3.58;;;2.28;;
43793;SDS011;29414;44.798;20.366;2023-04-24T15:25:59;3.83;;;2.35;;
43793;SDS011;29414;44.798;20.366;2023-04-24T15:30:01;5.90;;;3.00;;
43793;SDS011;29414;44.798;20.366;2023-04-24T15:34:01;3.92;;;3.00;;
43793;SDS011;29414;44.798;20.366;2023-04-24T15:38:02;2.75;;;2.55;;
43793;SDS011;29414;44.798;20.366;2023-04-24T15:42:03;4.30;;;2.55;;
43793;SDS011;29414;44.798;20.366;2023-04-24T15:46:04;3.42;;;2.67;;
43793;SDS011;29414;44.798;20.366;2023-04-24T15:50:05;5.78;;;2.95;;
43793;SDS011;29414;44.798;20.366;2023-04-24T15:54:05;5.43;;;2.58;;
43793;SDS011;29414;44.798;20.366;2023-04-24T15:58:05;3.95;;;2.67;;
43793;SDS011;29414;44.798;20.366;2023-04-24T16:02:07;6.63;;;2.83;;
43793;SDS011;29414;44.798;20.366;2023-04-24T16:06:08;2.53;;;1.90;;
43793;SDS011;29414;44.798;20.366;2023-04-24T16:10:08;4.95;;;2.42;;
43793;SDS011;29414;44.798;20.366;2023-04-24T16:14:09;5.78;;;2.55;;
43793;SDS011;29414;44.798;20.366;2023-04-24T16:18:09;3.90;;;2.30;;
43793;SDS011;29414;44.798;20.366;2023-04-24T16:22:10;4.75;;;2.97;;
43793;SDS011;29414;44.798;20.366;2023-04-24T16:26:10;3.76;;;2.48;;
43793;SDS011;29414;44.798;20.366;2023-04-24T16:30:10;4.22;;;2.55;;
43793;SDS011;29414;44.798;20.366;2023-04-24T16:34:11;6.45;;;3.00;;
43793;SDS011;29414;44.798;20.366;2023-04-24T16:38:11;3.35;;;3.13;;
43793;SDS011;29414;44.798;20.366;2023-04-24T16:42:11;5.54;;;2.94;;
43793;SDS011;29414;44.798;20.366;2023-04-24T16:46:12;5.57;;;3.90;;
43793;SDS011;29414;44.798;20.366;2023-04-24T16:50:13;5.40;;;4.22;;
43793;SDS011;29414;44.798;20.366;2023-04-24T16:54:13;6.20;;;4.70;;
43793;SDS011;29414;44.798;20.366;2023-04-24T16:58:13;6.28;;;4.85;;
43793;SDS011;29414;44.798;20.366;2023-04-24T17:02:13;6.53;;;4.80;;
43793;SDS011;29414;44.798;20.366;2023-04-24T17:06:14;8.98;;;5.80;;
43793;SDS011;29414;44.798;20.366;2023-04-24T17:10:14;7.55;;;5.95;;
43793;SDS011;29414;44.798;20.366;2023-04-24T17:14:15;11.57;;;8.13;;
43793;SDS011;29414;44.798;20.366;2023-04-24T17:18:16;10.10;;;7.05;;
43793;SDS011;29414;44.798;20.366;2023-04-24T17:22:17;12.98;;;6.97;;
43793;SDS011;29414;44.798;20.366;2023-04-24T17:26:17;8.35;;;6.47;;
43793;SDS011;29414;44.798;20.366;2023-04-24T17:30:17;9.85;;;5.90;;
43793;SDS011;29414;44.798;20.366;2023-04-24T17:34:18;5.72;;;5.15;;
43793;SDS011;29414;44.798;20.366;2023-04-24T17:38:18;9.07;;;6.90;;
43793;SDS011;29414;44.798;20.366;2023-04-24T17:42:19;12.25;;;7.55;;
43793;SDS011;29414;44.798;20.366;2023-04-24T17:46:19;10.30;;;7.38;;
43793;SDS011;29414;44.798;20.366;2023-04-24T17:50:19;7.15;;;6.38;;
43793;SDS011;29414;44.798;20.366;2023-04-24T17:54:20;6.28;;;5.68;;
43793;SDS011;29414;44.798;20.366;2023-04-24T17:58:20;8.20;;;6.63;;
43793;SDS011;29414;44.798;20.366;2023-04-24T18:02:21;7.10;;;5.80;;
43793;SDS011;29414;44.798;20.366;2023-04-24T18:06:21;8.50;;;6.10;;
43793;SDS011;29414;44.798;20.366;2023-04-24T18:10:22;7.47;;;6.63;;
43793;SDS011;29414;44.798;20.366;2023-04-24T18:14:22;8.55;;;5.85;;
43793;SDS011;29414;44.798;20.366;2023-04-24T18:18:24;5.97;;;5.43;;
43793;SDS011;29414;44.798;20.366;2023-04-24T18:22:25;6.88;;;6.20;;
43793;SDS011;29414;44.798;20.366;2023-04-24T18:26:26;6.70;;;5.32;;
43793;SDS011;29414;44.798;20.366;2023-04-24T18:30:26;6.18;;;5.47;;
43793;SDS011;29414;44.798;20.366;2023-04-24T18:34:30;5.97;;;5.47;;
43793;SDS011;29414;44.798;20.366;2023-04-24T18:38:30;6.90;;;5.57;;
43793;SDS011;29414;44.798;20.366;2023-04-24T18:42:31;6.43;;;5.47;;
43793;SDS011;29414;44.798;20.366;2023-04-24T18:46:31;5.90;;;5.12;;
43793;SDS011;29414;44.798;20.366;2023-04-24T18:50:36;8.25;;;5.80;;
43793;SDS011;29414;44.798;20.366;2023-04-24T18:54:37;6.30;;;5.70;;
43793;SDS011;29414;44.798;20.366;2023-04-24T18:58:39;6.25;;;5.47;;
43793;SDS011;29414;44.798;20.366;2023-04-24T19:02:43;6.25;;;5.55;;
43793;SDS011;29414;44.798;20.366;2023-04-24T19:06:43;6.53;;;5.93;;
43793;SDS011;29414;44.798;20.366;2023-04-24T19:10:43;8.05;;;5.60;;
43793;SDS011;29414;44.798;20.366;2023-04-24T19:14:44;10.95;;;6.22;;
43793;SDS011;29414;44.798;20.366;2023-04-24T19:18:45;11.77;;;5.93;;
43793;SDS011;29414;44.798;20.366;2023-04-24T19:22:45;6.10;;;5.43;;
43793;SDS011;29414;44.798;20.366;2023-04-24T19:26:46;6.10;;;5.50;;
43793;SDS011;29414;44.798;20.366;2023-04-24T19:30:46;9.80;;;6.07;;
43793;SDS011;29414;44.798;20.366;2023-04-24T19:34:46;7.30;;;6.30;;
43793;SDS011;29414;44.798;20.366;2023-04-24T19:38:46;8.07;;;6.25;;
43793;SDS011;29414;44.798;20.366;2023-04-24T19:42:49;6.45;;;5.45;;
43793;SDS011;29414;44.798;20.366;2023-04-24T19:46:49;7.53;;;6.70;;
43793;SDS011;29414;44.798;20.366;2023-04-24T19:50:50;7.70;;;5.95;;
43793;SDS011;29414;44.798;20.366;2023-04-24T19:54:50;9.40;;;6.66;;
43793;SDS011;29414;44.798;20.366;2023-04-24T19:58:51;9.18;;;8.27;;
43793;SDS011;29414;44.798;20.366;2023-04-24T20:02:51;17.25;;;15.65;;
43793;SDS011;29414;44.798;20.366;2023-04-24T20:06:51;10.68;;;9.57;;
43793;SDS011;29414;44.798;20.366;2023-04-24T20:10:52;29.30;;;21.20;;
43793;SDS011;29414;44.798;20.366;2023-04-24T20:14:56;23.08;;;19.92;;
43793;SDS011;29414;44.798;20.366;2023-04-24T20:18:56;9.27;;;8.38;;
43793;SDS011;29414;44.798;20.366;2023-04-24T20:22:57;11.38;;;8.38;;
43793;SDS011;29414;44.798;20.366;2023-04-24T20:26:57;7.30;;;6.63;;
43793;SDS011;29414;44.798;20.366;2023-04-24T20:30:57;6.63;;;5.93;;
43793;SDS011;29414;44.798;20.366;2023-04-24T20:34:58;11.23;;;6.00;;
43793;SDS011;29414;44.798;20.366;2023-04-24T20:38:58;9.85;;;7.53;;
43793;SDS011;29414;44.798;20.366;2023-04-24T20:42:58;8.73;;;6.68;;
43793;SDS011;29414;44.798;20.366;2023-04-24T20:46:59;8.93;;;6.18;;
43793;SDS011;29414;44.798;20.366;2023-04-24T20:50:59;9.70;;;8.25;;
43793;SDS011;29414;44.798;20.366;2023-04-24T20:55:00;7.03;;;5.45;;
43793;SDS011;29414;44.798;20.366;2023-04-24T20:59:02;6.60;;;5.40;;
43793;SDS011;29414;44.798;20.366;2023-04-24T21:03:02;8.65;;;6.57;;
43793;SDS011;29414;44.798;20.366;2023-04-24T21:07:05;8.65;;;7.75;;
43793;SDS011;29414;44.798;20.366;2023-04-24T21:11:05;9.40;;;7.50;;
43793;SDS011;29414;44.798;20.366;2023-04-24T21:15:06;8.52;;;7.57;;
43793;SDS011;29414;44.798;20.366;2023-04-24T21:19:06;11.48;;;9.02;;
43793;SDS011;29414;44.798;20.366;2023-04-24T21:23:06;13.95;;;10.25;;
43793;SDS011;29414;44.798;20.366;2023-04-24T21:27:07;15.00;;;12.05;;
43793;SDS011;29414;44.798;20.366;2023-04-24T21:31:08;17.83;;;12.55;;
43793;SDS011;29414;44.798;20.366;2023-04-24T21:35:08;12.80;;;11.50;;
43793;SDS011;29414;44.798;20.366;2023-04-24T21:39:08;12.80;;;11.63;;
43793;SDS011;29414;44.798;20.366;2023-04-24T21:43:08;13.08;;;11.88;;
43793;SDS011;29414;44.798;20.366;2023-04-24T21:47:09;11.70;;;10.55;;
43793;SDS011;29414;44.798;20.366;2023-04-24T21:51:09;12.38;;;11.10;;
43793;SDS011;29414;44.798;20.366;2023-04-24T21:55:10;11.50;;;9.30;;
43793;SDS011;29414;44.798;20.366;2023-04-24T21:59:10;14.07;;;10.48;;
43793;SDS011;29414;44.798;20.366;2023-04-24T22:03:10;10.10;;;9.23;;
43793;SDS011;29414;44.798;20.366;2023-04-24T22:07:10;8.28;;;7.58;;
43793;SDS011;29414;44.798;20.366;2023-04-24T22:11:11;10.27;;;8.52;;
43793;SDS011;29414;44.798;20.366;2023-04-24T22:15:11;9.65;;;8.82;;
43793;SDS011;29414;44.798;20.366;2023-04-24T22:19:12;12.13;;;9.23;;
43793;SDS011;29414;44.798;20.366;2023-04-24T22:23:12;12.88;;;8.55;;
43793;SDS011;29414;44.798;20.366;2023-04-24T22:27:12;8.32;;;7.63;;
43793;SDS011;29414;44.798;20.366;2023-04-24T22:31:13;8.15;;;7.35;;
43793;SDS011;29414;44.798;20.366;2023-04-24T22:35:13;7.38;;;6.88;;
43793;SDS011;29414;44.798;20.366;2023-04-24T22:39:13;6.90;;;6.40;;
43793;SDS011;29414;44.798;20.366;2023-04-24T22:43:16;6.93;;;6.18;;
43793;SDS011;29414;44.798;20.366;2023-04-24T22:47:16;7.78;;;5.00;;
43793;SDS011;29414;44.798;20.366;2023-04-24T22:51:18;5.30;;;4.83;;
43793;SDS011;29414;44.798;20.366;2023-04-24T22:55:19;4.93;;;4.57;;
43793;SDS011;29414;44.798;20.366;2023-04-24T22:59:19;5.33;;;4.83;;
43793;SDS011;29414;44.798;20.366;2023-04-24T23:03:19;7.00;;;5.13;;
43793;SDS011;29414;44.798;20.366;2023-04-24T23:07:20;6.83;;;5.70;;
43793;SDS011;29414;44.798;20.366;2023-04-24T23:11:20;6.60;;;4.90;;
43793;SDS011;29414;44.798;20.366;2023-04-24T23:15:21;5.83;;;5.33;;
43793;SDS011;29414;44.798;20.366;2023-04-24T23:19:21;8.23;;;5.80;;
43793;SDS011;29414;44.798;20.366;2023-04-24T23:23:21;6.43;;;5.77;;
43793;SDS011;29414;44.798;20.366;2023-04-24T23:27:22;7.73;;;5.50;;
43793;SDS011;29414;44.798;20.366;2023-04-24T23:31:22;5.50;;;5.00;;
43793;SDS011;29414;44.798;20.366;2023-04-24T23:35:22;5.93;;;5.43;;
43793;SDS011;29414;44.798;20.366;2023-04-24T23:39:29;5.60;;;5.10;;
43793;SDS011;29414;44.798;20.366;2023-04-24T23:43:29;7.27;;;5.27;;
43793;SDS011;29414;44.798;20.366;2023-04-24T23:47:29;6.33;;;5.57;;